createdAt,value
2023-03-03T00:00:47.859Z,59.45
2023-03-03T00:03:18.684Z,60.23
2023-03-03T00:05:46.292Z,60.12
2023-03-03T00:11:03.244Z,60.25
2023-03-03T00:13:32.194Z,60.58
2023-03-03T00:16:15.193Z,61.34
2023-03-03T00:18:44.030Z,60.89
2023-03-03T00:21:29.175Z,61.17
2023-03-03T00:24:04.512Z,60.84
2023-03-03T00:26:38.758Z,60.77
2023-03-03T00:29:27.653Z,61.33
2023-03-03T00:31:55.276Z,60.23
2023-03-03T00:34:27.789Z,61.26
2023-03-03T00:36:57.164Z,60.88
2023-03-03T00:39:30.182Z,61.52
2023-03-03T00:42:00.765Z,60.87
2023-03-03T00:44:40.341Z,61.22
2023-03-03T00:47:30.712Z,61.84
2023-03-03T00:50:22.173Z,61.56
2023-03-03T00:53:00.188Z,61.51
2023-03-03T00:55:27.711Z,60.85
2023-03-03T00:57:56.604Z,61.20
2023-03-03T01:00:24.396Z,61.45
2023-03-03T01:02:52.946Z,61.19
2023-03-03T01:05:21.641Z,61.81
2023-03-03T01:07:49.163Z,61.64
2023-03-03T01:10:16.913Z,61.85
2023-03-03T01:12:44.581Z,61.26
2023-03-03T01:15:15.709Z,61.57
2023-03-03T01:17:43.720Z,61.64
2023-03-03T01:20:13.703Z,61.26
2023-03-03T01:22:41.298Z,61.23
2023-03-03T01:25:09.877Z,61.51
2023-03-03T01:27:37.929Z,61.78
2023-03-03T01:30:06.118Z,61.73
2023-03-03T01:32:35.513Z,62.23
2023-03-03T01:35:03.081Z,61.75
2023-03-03T01:37:30.607Z,61.75
2023-03-03T01:39:58.166Z,61.78
2023-03-03T01:42:29.160Z,62.21
2023-03-03T01:45:20.126Z,62.90
2023-03-03T01:47:54.849Z,62.53
2023-03-03T01:50:39.734Z,62.33
2023-03-03T01:53:14.661Z,63.27
2023-03-03T01:55:44.568Z,61.76
2023-03-03T01:58:15.301Z,62.85
2023-03-03T02:00:47.323Z,62.01
2023-03-03T02:03:16.260Z,61.60
2023-03-03T02:05:44.630Z,60.98
2023-03-03T02:08:17.579Z,61.36
2023-03-03T02:10:47.072Z,61.23
2023-03-03T02:13:15.529Z,61.43
2023-03-03T02:15:43.052Z,61.43
2023-03-03T02:18:14.188Z,61.18
2023-03-03T02:20:54.916Z,61.58
2023-03-03T02:23:27.292Z,61.06
2023-03-03T02:26:06.613Z,61.53
2023-03-03T02:28:36.401Z,61.03
2023-03-03T02:31:04.563Z,62.10
2023-03-03T02:33:32.191Z,61.68
2023-03-03T02:35:59.781Z,61.49
2023-03-03T02:38:30.773Z,61.92
2023-03-03T02:41:09.211Z,62.28
2023-03-03T02:43:44.908Z,61.34
2023-03-03T02:46:12.414Z,61.08
2023-03-03T02:48:39.943Z,61.19
2023-03-03T02:51:07.460Z,60.85
2023-03-03T02:53:34.943Z,60.76
2023-03-03T02:56:04.400Z,61.49
2023-03-03T02:58:32.101Z,61.42
2023-03-03T03:00:59.684Z,61.34
2023-03-03T03:03:27.316Z,61.58
2023-03-03T03:05:54.878Z,61.27
2023-03-03T03:08:22.414Z,61.63
2023-03-03T03:10:50.166Z,61.48
2023-03-03T03:13:19.035Z,62.50
2023-03-03T03:15:46.941Z,62.03
2023-03-03T03:18:14.534Z,61.94
2023-03-03T03:20:42.271Z,61.39
2023-03-03T03:23:10.714Z,61.37
2023-03-03T03:25:45.143Z,61.59
2023-03-03T03:28:13.322Z,61.60
2023-03-03T03:30:42.672Z,62.19
2023-03-03T03:33:10.389Z,61.77
2023-03-03T03:35:40.398Z,62.49
2023-03-03T03:38:07.976Z,61.91
2023-03-03T03:40:35.471Z,62.01
2023-03-03T03:43:02.940Z,62.04
2023-03-03T03:45:30.479Z,62.64
2023-03-03T03:47:59.605Z,62.57
2023-03-03T03:50:27.673Z,61.54
2023-03-03T03:52:55.281Z,62.07
2023-03-03T03:55:23.522Z,62.33
2023-03-03T03:57:51.340Z,61.53
2023-03-03T04:00:19.441Z,62.08
2023-03-03T04:02:47.050Z,61.91
2023-03-03T04:05:16.001Z,61.56
2023-03-03T04:07:43.502Z,62.21
2023-03-03T04:10:12.053Z,62.30
2023-03-03T04:12:39.569Z,61.92
2023-03-03T04:15:08.884Z,62.68
2023-03-03T04:17:36.950Z,62.19
2023-03-03T04:20:05.345Z,62.16
2023-03-03T04:22:36.032Z,62.28
2023-03-03T04:25:05.614Z,62.88
2023-03-03T04:27:33.147Z,62.59
2023-03-03T04:30:00.994Z,62.18
2023-03-03T04:32:28.719Z,61.90
2023-03-03T04:35:07.232Z,62.20
2023-03-03T04:37:38.753Z,61.84
2023-03-03T04:40:08.115Z,62.18
2023-03-03T04:42:35.856Z,61.81
2023-03-03T04:45:03.642Z,62.19
2023-03-03T04:47:31.186Z,62.30
2023-03-03T04:49:58.759Z,62.34
2023-03-03T04:52:26.445Z,62.18
2023-03-03T04:54:55.294Z,62.63
2023-03-03T04:57:23.123Z,62.86
2023-03-03T04:59:51.481Z,63.30
2023-03-03T05:02:19.218Z,62.98
2023-03-03T05:04:46.898Z,63.22
2023-03-03T05:07:14.451Z,63.45
2023-03-03T05:09:41.956Z,63.60
2023-03-03T05:12:10.807Z,63.91
2023-03-03T05:14:39.558Z,63.41
2023-03-03T05:17:07.057Z,64.02
2023-03-03T05:19:34.924Z,63.08
2023-03-03T05:22:02.999Z,64.01
2023-03-03T05:24:30.484Z,64.22
2023-03-03T05:26:58.012Z,63.26
2023-03-03T05:29:28.836Z,62.74
2023-03-03T05:31:56.366Z,62.67
2023-03-03T05:34:23.892Z,63.06
2023-03-03T05:36:51.677Z,62.44
2023-03-03T05:39:19.196Z,62.06
2023-03-03T05:41:46.683Z,62.24
2023-03-03T05:44:14.205Z,62.20
2023-03-03T05:46:43.477Z,62.34
2023-03-03T05:49:10.980Z,62.75
2023-03-03T05:51:38.550Z,63.11
2023-03-03T05:54:06.425Z,63.18
2023-03-03T05:56:33.927Z,63.62
2023-03-03T05:59:01.554Z,63.98
2023-03-03T06:01:29.404Z,64.04
2023-03-03T06:03:58.382Z,64.40
2023-03-03T06:06:26.077Z,64.56
2023-03-03T06:08:56.138Z,64.85
2023-03-03T06:11:24.733Z,65.08
2023-03-03T06:13:52.314Z,64.59
2023-03-03T06:16:20.909Z,64.42
2023-03-03T06:18:48.452Z,64.22
2023-03-03T06:21:17.580Z,63.17
2023-03-03T06:23:45.165Z,63.40
2023-03-03T06:26:12.654Z,63.44
2023-03-03T06:28:40.198Z,63.83
2023-03-03T06:31:07.745Z,63.58
2023-03-03T06:33:35.297Z,62.71
2023-03-03T06:36:05.806Z,62.72
2023-03-03T06:38:34.832Z,62.62
2023-03-03T06:41:07.211Z,62.87
2023-03-03T06:43:34.859Z,62.80
2023-03-03T06:46:02.482Z,62.64
2023-03-03T06:48:30.939Z,63.04
2023-03-03T06:50:58.883Z,63.55
2023-03-03T06:53:27.504Z,63.14
2023-03-03T06:55:59.100Z,63.68
2023-03-03T06:58:27.565Z,62.99
2023-03-03T07:00:57.964Z,63.40
2023-03-03T07:03:28.244Z,63.96
2023-03-03T07:05:55.744Z,64.45
2023-03-03T07:08:25.423Z,63.98
2023-03-03T07:10:54.082Z,63.58
2023-03-03T07:13:25.208Z,63.37
2023-03-03T07:15:55.183Z,63.17
2023-03-03T07:18:40.301Z,64.36
2023-03-03T07:21:17.351Z,65.22
2023-03-03T07:23:46.100Z,63.67
2023-03-03T07:26:15.891Z,63.33
2023-03-03T07:28:46.269Z,63.96
2023-03-03T07:31:34.994Z,63.88
2023-03-03T07:34:06.059Z,63.17
2023-03-03T07:36:38.288Z,64.24
2023-03-03T07:39:26.429Z,64.76
2023-03-03T07:41:55.589Z,63.44
2023-03-03T07:44:32.734Z,63.93
2023-03-03T07:47:00.705Z,63.97
2023-03-03T07:49:36.622Z,64.13
2023-03-03T07:52:22.752Z,63.59
2023-03-03T07:54:50.400Z,64.11
2023-03-03T07:57:23.296Z,64.52
2023-03-03T07:59:54.122Z,63.60
2023-03-03T08:02:36.147Z,63.41
2023-03-03T08:05:27.562Z,63.43
2023-03-03T08:07:56.565Z,63.19
2023-03-03T08:10:36.132Z,62.72
2023-03-03T08:13:16.384Z,63.45
2023-03-03T08:15:46.664Z,63.32
2023-03-03T08:18:23.633Z,62.24
2023-03-03T08:20:53.738Z,62.05
2023-03-03T08:23:21.909Z,61.74
2023-03-03T08:25:51.028Z,61.74
2023-03-03T08:28:19.695Z,61.71
2023-03-03T08:30:49.834Z,62.71
2023-03-03T08:33:18.137Z,62.47
2023-03-03T08:35:46.814Z,62.44
2023-03-03T08:38:16.397Z,62.69
2023-03-03T08:40:44.296Z,62.83
2023-03-03T08:43:14.513Z,62.56
2023-03-03T08:45:42.041Z,62.55
2023-03-03T08:48:10.994Z,62.17
2023-03-03T08:50:39.505Z,61.64
2023-03-03T08:53:07.979Z,61.80
2023-03-03T08:55:35.676Z,61.73
2023-03-03T08:58:03.576Z,61.35
2023-03-03T09:00:31.280Z,61.68
2023-03-03T09:03:01.452Z,61.70
2023-03-03T09:08:13.740Z,60.97
2023-03-03T09:10:41.717Z,60.87
2023-03-03T09:21:54.931Z,59.09
2023-03-03T09:24:36.790Z,57.96
2023-03-03T09:27:16.331Z,58.89
2023-03-03T09:32:34.727Z,56.84
2023-03-03T09:35:27.491Z,56.94
2023-03-03T09:37:56.444Z,56.79
2023-03-03T09:40:48.689Z,57.61
2023-03-03T09:43:31.449Z,56.29
2023-03-03T09:46:05.300Z,55.60
2023-03-03T09:48:48.607Z,55.00
2023-03-03T09:51:47.887Z,55.16
2023-03-03T09:54:40.733Z,54.99
2023-03-03T09:57:15.832Z,55.31
2023-03-03T10:00:46.742Z,54.99
2023-03-03T10:03:40.818Z,53.72
2023-03-03T10:06:28.921Z,53.66
2023-03-03T10:09:38.695Z,53.20
2023-03-03T10:12:37.844Z,53.37
2023-03-03T10:15:48.070Z,54.07
2023-03-03T10:21:38.395Z,53.50
2023-03-03T10:24:37.264Z,53.00
2023-03-03T10:30:58.449Z,53.01
2023-03-03T10:33:44.691Z,52.80
2023-03-03T10:36:27.896Z,52.29
2023-03-03T10:39:12.197Z,53.61
2023-03-03T10:41:53.617Z,52.51
2023-03-03T10:44:41.901Z,52.31
2023-03-03T10:47:33.571Z,51.30
2023-03-03T10:50:13.906Z,51.22
2023-03-03T10:52:50.484Z,52.44
2023-03-03T10:55:47.550Z,50.45
2023-03-03T10:58:49.922Z,50.37
2023-03-03T11:04:30.627Z,51.10
2023-03-03T11:07:06.956Z,49.83
2023-03-03T11:10:03.434Z,48.41
2023-03-03T11:12:49.943Z,48.79
2023-03-03T11:15:55.317Z,48.61
2023-03-03T11:18:34.930Z,50.39
2023-03-03T11:21:26.022Z,48.55
2023-03-03T11:24:03.366Z,47.94
2023-03-03T11:27:00.330Z,47.96
2023-03-03T11:29:41.039Z,47.89
2023-03-03T11:32:21.302Z,47.15
2023-03-03T11:35:02.137Z,46.63
2023-03-03T11:37:40.924Z,46.80
2023-03-03T11:40:17.483Z,46.30
2023-03-03T11:42:57.222Z,46.41
2023-03-03T11:45:30.679Z,46.04
2023-03-03T11:48:13.079Z,45.82
2023-03-03T11:50:47.625Z,45.41
2023-03-03T11:53:29.050Z,44.94
2023-03-03T11:55:59.674Z,45.43
2023-03-03T11:58:35.058Z,44.75
2023-03-03T12:01:17.714Z,44.35
2023-03-03T12:03:50.332Z,44.40
2023-03-03T12:06:27.356Z,44.16
2023-03-03T12:09:04.542Z,42.50
2023-03-03T12:11:37.885Z,41.39
2023-03-03T12:14:18.940Z,40.34
2023-03-03T12:16:56.540Z,39.80
2023-03-03T12:19:35.296Z,38.71
2023-03-03T12:22:13.322Z,38.53
2023-03-03T12:24:51.039Z,37.77
2023-03-03T12:27:24.538Z,37.93
2023-03-03T12:30:04.995Z,37.30
2023-03-03T12:32:49.966Z,37.11
2023-03-03T12:35:27.179Z,37.01
2023-03-03T12:38:05.215Z,36.65
2023-03-03T12:40:35.490Z,36.83
2023-03-03T12:43:16.151Z,36.66
2023-03-03T12:45:56.226Z,37.30
2023-03-03T12:48:36.867Z,37.77
2023-03-03T12:51:11.839Z,38.15
2023-03-03T12:53:59.911Z,37.60
2023-03-03T12:56:32.933Z,37.88
2023-03-03T12:59:05.753Z,37.70
2023-03-03T13:01:43.415Z,37.86
2023-03-03T13:04:18.492Z,38.36
2023-03-03T13:06:53.363Z,38.74
2023-03-03T13:09:32.284Z,38.25
2023-03-03T13:12:11.959Z,37.85
2023-03-03T13:14:48.087Z,38.39
2023-03-03T13:17:22.216Z,38.77
2023-03-03T13:19:56.582Z,38.70
2023-03-03T13:22:38.495Z,39.23
2023-03-03T13:25:21.969Z,39.31
2023-03-03T13:27:53.238Z,38.90
2023-03-03T13:30:23.848Z,38.64
2023-03-03T13:32:56.024Z,39.00
2023-03-03T13:35:33.511Z,38.99
2023-03-03T13:38:03.554Z,38.70
2023-03-03T13:40:42.333Z,38.61
2023-03-03T13:43:18.045Z,38.39
2023-03-03T13:45:55.259Z,38.29
2023-03-03T13:48:43.109Z,38.06
2023-03-03T13:51:20.830Z,38.09
2023-03-03T13:53:56.353Z,37.80
2023-03-03T13:56:38.913Z,38.07
2023-03-03T13:59:19.507Z,38.32
2023-03-03T14:01:58.968Z,38.54
2023-03-03T14:04:39.378Z,38.70
2023-03-03T14:07:15.370Z,38.97
2023-03-03T14:09:56.737Z,38.83
2023-03-03T14:12:35.302Z,38.95
2023-03-03T14:15:16.474Z,38.85
2023-03-03T14:18:03.720Z,39.30
2023-03-03T14:20:33.209Z,39.12
2023-03-03T14:23:03.272Z,39.56
2023-03-03T14:25:55.267Z,39.50
2023-03-03T14:28:26.073Z,39.52
2023-03-03T14:30:58.984Z,39.51
2023-03-03T14:33:32.379Z,39.66
2023-03-03T14:36:06.022Z,39.41
2023-03-03T14:38:44.226Z,39.83
2023-03-03T14:41:17.795Z,40.06
2023-03-03T14:43:47.688Z,39.98
2023-03-03T14:46:36.882Z,39.98
2023-03-03T14:49:07.403Z,40.05
2023-03-03T14:51:42.429Z,39.97
2023-03-03T14:54:21.371Z,39.87
2023-03-03T14:57:01.341Z,40.08
2023-03-03T14:59:31.678Z,40.27
2023-03-03T15:02:14.255Z,40.57
2023-03-03T15:04:41.852Z,40.52
2023-03-03T15:07:28.603Z,40.72
2023-03-03T15:09:56.142Z,40.45
2023-03-03T15:12:25.414Z,40.61
2023-03-03T15:15:03.466Z,40.72
2023-03-03T15:17:36.517Z,40.56
2023-03-03T15:20:24.805Z,40.73
2023-03-03T15:22:57.376Z,40.74
2023-03-03T15:25:42.339Z,40.69
2023-03-03T15:28:36.473Z,40.71
2023-03-03T15:31:15.763Z,41.26
2023-03-03T15:33:52.730Z,41.30
2023-03-03T15:36:30.931Z,41.59
2023-03-03T15:39:09.512Z,41.61
2023-03-03T15:41:41.850Z,41.48
2023-03-03T15:44:17.847Z,41.72
2023-03-03T15:46:59.817Z,42.21
2023-03-03T15:49:54.407Z,42.05
2023-03-03T15:52:34.905Z,42.33
2023-03-03T15:55:21.084Z,42.39
2023-03-03T15:58:01.762Z,42.64
2023-03-03T16:00:38.736Z,42.69
2023-03-03T16:03:15.275Z,42.89
2023-03-03T16:05:53.358Z,42.93
2023-03-03T16:08:26.165Z,43.36
2023-03-03T16:11:03.611Z,43.27
2023-03-03T16:13:42.634Z,43.54
2023-03-03T16:16:19.761Z,43.93
2023-03-03T16:19:00.356Z,43.71
2023-03-03T16:21:49.477Z,43.71
2023-03-03T16:24:29.950Z,43.96
2023-03-03T16:27:06.371Z,44.20
2023-03-03T16:29:47.892Z,44.30
2023-03-03T16:32:22.812Z,44.52
2023-03-03T16:34:59.169Z,44.68
2023-03-03T16:37:32.646Z,45.78
2023-03-03T16:40:09.344Z,45.37
2023-03-03T16:42:36.892Z,45.53
2023-03-03T16:45:22.168Z,45.80
2023-03-03T16:48:12.743Z,46.14
2023-03-03T16:50:47.111Z,46.29
2023-03-03T16:53:30.709Z,46.80
2023-03-03T16:56:07.853Z,46.62
2023-03-03T16:58:47.302Z,46.76
2023-03-03T17:01:26.136Z,46.90
2023-03-03T17:04:04.252Z,47.26
2023-03-03T17:06:43.463Z,47.31
2023-03-03T17:09:39.597Z,47.52
2023-03-03T17:12:31.550Z,47.74
2023-03-03T17:15:13.505Z,47.85
2023-03-03T17:17:45.351Z,47.84
2023-03-03T17:20:21.134Z,47.96
2023-03-03T17:22:58.877Z,48.41
2023-03-03T17:25:37.376Z,48.63
2023-03-03T17:28:18.037Z,48.98
2023-03-03T17:30:51.727Z,48.60
2023-03-03T17:33:29.696Z,49.19
2023-03-03T17:36:18.267Z,49.17
2023-03-03T17:38:58.352Z,49.08
2023-03-03T17:41:33.865Z,49.43
2023-03-03T17:44:06.494Z,49.99
2023-03-03T17:46:40.513Z,49.65
2023-03-03T17:49:42.037Z,50.23
2023-03-03T17:52:33.666Z,50.02
2023-03-03T17:55:20.702Z,50.28
2023-03-03T17:58:03.493Z,50.40
2023-03-03T18:00:41.020Z,50.71
2023-03-03T18:03:27.484Z,50.94
2023-03-03T18:06:15.743Z,50.98
2023-03-03T18:09:14.519Z,51.24
2023-03-03T18:11:59.864Z,51.43
2023-03-03T18:15:07.353Z,51.58
2023-03-03T18:17:37.977Z,51.42
2023-03-03T18:20:41.805Z,51.87
2023-03-03T18:23:33.924Z,52.23
2023-03-03T18:26:03.628Z,51.84
2023-03-03T18:28:46.835Z,52.60
2023-03-03T18:31:24.904Z,52.81
2023-03-03T18:34:08.236Z,53.05
2023-03-03T18:36:38.532Z,53.04
2023-03-03T18:39:07.992Z,53.33
2023-03-03T18:42:07.230Z,54.36
2023-03-03T18:44:34.868Z,53.67
2023-03-03T18:47:02.440Z,53.90
2023-03-03T18:50:08.515Z,54.84
2023-03-03T18:52:36.969Z,53.44
2023-03-03T18:55:27.194Z,53.85
2023-03-03T18:58:23.853Z,54.50
2023-03-03T19:00:53.480Z,54.09
2023-03-03T19:03:28.326Z,55.05
2023-03-03T19:05:57.826Z,55.11
2023-03-03T19:08:27.413Z,55.68
2023-03-03T19:10:57.525Z,55.06
2023-03-03T19:13:46.695Z,55.67
2023-03-03T19:16:36.824Z,55.58
2023-03-03T19:19:12.207Z,55.17
2023-03-03T19:21:42.647Z,55.18
2023-03-03T19:24:33.691Z,56.57
2023-03-03T19:27:28.559Z,56.02
2023-03-03T19:30:20.915Z,55.77
2023-03-03T19:33:12.974Z,56.00
2023-03-03T19:35:52.573Z,56.11
2023-03-03T19:38:28.718Z,55.71
2023-03-03T19:41:08.817Z,55.73
2023-03-03T19:43:43.161Z,55.68
2023-03-03T19:46:32.629Z,55.69
2023-03-03T19:49:07.592Z,55.80
2023-03-03T19:51:40.853Z,55.66
2023-03-03T19:54:23.564Z,56.16
2023-03-03T19:56:53.761Z,56.29
2023-03-03T19:59:31.400Z,56.72
2023-03-03T20:02:16.042Z,56.66
2023-03-03T20:04:58.011Z,56.83
2023-03-03T20:07:33.674Z,56.66
2023-03-03T20:10:12.254Z,56.48
2023-03-03T20:12:59.830Z,56.42
2023-03-03T20:15:39.318Z,56.87
2023-03-03T20:18:34.906Z,57.56
2023-03-03T20:21:09.091Z,57.51
2023-03-03T20:23:46.091Z,57.67
2023-03-03T20:26:17.639Z,58.02
2023-03-03T20:29:03.617Z,58.39
2023-03-03T20:31:38.162Z,58.16
2023-03-03T20:34:15.033Z,58.18
2023-03-03T20:36:53.285Z,58.50
2023-03-03T20:39:36.188Z,58.94
2023-03-03T20:42:12.173Z,58.51
2023-03-03T20:44:52.603Z,58.77
2023-03-03T20:47:32.122Z,58.99
2023-03-03T20:50:16.595Z,59.13
2023-03-03T20:52:56.658Z,58.93
2023-03-03T20:55:32.318Z,58.55
2023-03-03T20:58:05.867Z,58.59
2023-03-03T21:00:38.146Z,58.48
2023-03-03T21:03:15.193Z,58.64
2023-03-03T21:06:01.582Z,59.22
2023-03-03T21:08:54.302Z,59.36
2023-03-03T21:11:25.316Z,58.99
2023-03-03T21:13:54.416Z,58.90
2023-03-03T21:16:33.277Z,59.36
2023-03-03T21:19:03.262Z,58.89
2023-03-03T21:21:34.840Z,59.68
2023-03-03T21:24:02.590Z,58.92
2023-03-03T21:26:49.150Z,59.24
2023-03-03T21:29:24.981Z,58.40
2023-03-03T21:31:55.065Z,59.04
2023-03-03T21:34:29.087Z,58.72
2023-03-03T21:36:58.995Z,58.61
2023-03-03T21:39:31.844Z,58.63
2023-03-03T21:42:00.684Z,58.89
2023-03-03T21:44:46.841Z,59.26
2023-03-03T21:47:16.047Z,59.15
2023-03-03T21:49:44.437Z,59.18
2023-03-03T21:52:16.337Z,59.71
2023-03-03T21:54:44.417Z,59.25
2023-03-03T21:57:12.594Z,59.79
2023-03-03T21:59:40.662Z,59.34
2023-03-03T22:02:09.026Z,59.46
2023-03-03T22:04:38.390Z,60.02
2023-03-03T22:07:06.301Z,60.10
2023-03-03T22:09:35.575Z,60.25
2023-03-03T22:12:03.280Z,59.76
2023-03-03T22:14:30.806Z,59.84
2023-03-03T22:16:58.432Z,60.08
2023-03-03T22:19:26.174Z,59.94
2023-03-03T22:21:53.701Z,60.49
2023-03-03T22:24:21.394Z,60.17
2023-03-03T22:26:50.292Z,61.55
2023-03-03T22:29:22.678Z,61.75
2023-03-03T22:31:50.258Z,61.09
2023-03-03T22:34:18.046Z,61.01
2023-03-03T22:36:45.616Z,60.18
2023-03-03T22:39:13.142Z,59.92
2023-03-03T22:41:40.678Z,60.32
2023-03-03T22:44:09.560Z,59.26
2023-03-03T22:46:37.153Z,58.83
2023-03-03T22:49:04.658Z,58.89
2023-03-03T22:51:32.159Z,59.57
2023-03-03T22:53:59.674Z,59.60
2023-03-03T22:56:27.199Z,60.03
2023-03-03T22:58:54.718Z,60.76
2023-03-03T23:01:23.601Z,60.99
2023-03-03T23:03:51.147Z,60.67
2023-03-03T23:06:18.682Z,60.96
2023-03-03T23:08:46.176Z,60.78
2023-03-03T23:11:13.654Z,60.93
2023-03-03T23:13:41.180Z,61.09
2023-03-03T23:16:08.980Z,60.81
2023-03-03T23:18:37.909Z,60.76
2023-03-03T23:21:05.703Z,60.61
2023-03-03T23:23:33.271Z,60.71
2023-03-03T23:26:00.854Z,61.12
2023-03-03T23:28:28.406Z,60.77
2023-03-03T23:30:55.940Z,61.19
2023-03-03T23:33:23.905Z,61.02
2023-03-03T23:35:52.894Z,61.76
2023-03-03T23:38:20.559Z,61.48
2023-03-03T23:40:48.144Z,61.69
2023-03-03T23:43:16.045Z,61.57
2023-03-03T23:45:43.638Z,61.11
2023-03-03T23:48:11.341Z,61.31
2023-03-03T23:50:39.233Z,61.39
2023-03-03T23:53:08.887Z,61.65
2023-03-03T23:55:37.583Z,61.89
2023-03-03T23:58:05.515Z,61.65
